createdAt,value
2023-02-02T00:02:01.302Z,48.50
2023-02-02T00:04:31.622Z,48.50
2023-02-02T00:06:59.128Z,48.60
2023-02-02T00:09:31.453Z,48.50
2023-02-02T00:11:59.447Z,48.60
2023-02-02T00:14:26.639Z,48.60
2023-02-02T00:16:55.046Z,48.60
2023-02-02T00:19:33.462Z,48.60
2023-02-02T00:22:00.289Z,48.60
2023-02-02T00:24:27.477Z,48.60
2023-02-02T00:26:59.311Z,48.70
2023-02-02T00:29:30.722Z,48.70
2023-02-02T00:31:57.714Z,48.70
2023-02-02T00:34:24.697Z,48.60
2023-02-02T00:36:51.863Z,48.70
2023-02-02T00:39:22.118Z,48.70
2023-02-02T00:41:48.761Z,48.70
2023-02-02T00:44:33.976Z,48.70
2023-02-02T00:47:00.613Z,48.80
2023-02-02T00:49:27.357Z,48.80
2023-02-02T00:51:54.130Z,48.80
2023-02-02T00:54:20.827Z,48.80
2023-02-02T00:56:47.920Z,48.80
2023-02-02T00:59:14.591Z,48.70
2023-02-02T01:01:41.280Z,48.70
2023-02-02T01:04:08.376Z,48.70
2023-02-02T01:06:35.164Z,48.70
2023-02-02T01:09:02.661Z,48.80
2023-02-02T01:11:30.906Z,48.80
2023-02-02T01:13:57.716Z,48.80
2023-02-02T01:16:24.947Z,48.70
2023-02-02T01:18:52.241Z,48.80
2023-02-02T01:21:19.757Z,48.80
2023-02-02T01:23:46.778Z,48.80
2023-02-02T01:26:14.479Z,48.80
2023-02-02T01:28:41.514Z,48.80
2023-02-02T01:31:11.142Z,48.80
2023-02-02T01:33:37.947Z,48.80
2023-02-02T01:36:07.550Z,48.80
2023-02-02T01:38:34.999Z,48.80
2023-02-02T01:41:04.418Z,48.90
2023-02-02T01:43:57.731Z,48.90
2023-02-02T01:46:27.666Z,48.80
2023-02-02T01:49:11.151Z,48.90
2023-02-02T01:51:54.655Z,48.90
2023-02-02T01:54:28.232Z,49.00
2023-02-02T01:57:04.038Z,49.00
2023-02-02T01:59:31.443Z,48.90
2023-02-02T02:01:58.756Z,48.90
2023-02-02T02:04:27.187Z,48.90
2023-02-02T02:06:53.953Z,49.00
2023-02-02T02:09:20.976Z,49.00
2023-02-02T02:11:48.172Z,49.00
2023-02-02T02:14:34.753Z,49.00
2023-02-02T02:17:19.392Z,49.00
2023-02-02T02:20:39.202Z,49.10
2023-02-02T02:23:46.174Z,49.00
2023-02-02T02:26:34.422Z,49.00
2023-02-02T02:29:17.527Z,49.00
2023-02-02T02:32:17.111Z,49.00
2023-02-02T02:34:53.847Z,49.00
2023-02-02T02:37:52.374Z,49.00
2023-02-02T02:40:22.320Z,49.00
2023-02-02T02:42:57.551Z,49.10
2023-02-02T02:45:26.985Z,49.00
2023-02-02T02:47:54.392Z,49.00
2023-02-02T02:50:22.333Z,49.00
2023-02-02T02:52:53.933Z,49.00
2023-02-02T02:55:20.714Z,49.00
2023-02-02T02:58:16.681Z,49.00
2023-02-02T03:00:49.866Z,49.00
2023-02-02T03:03:41.952Z,49.00
2023-02-02T03:06:13.195Z,49.00
2023-02-02T03:09:12.222Z,49.00
2023-02-02T03:11:39.013Z,48.90
2023-02-02T03:14:09.499Z,49.00
2023-02-02T03:16:39.181Z,49.00
2023-02-02T03:19:07.365Z,48.90
2023-02-02T03:21:34.369Z,48.90
2023-02-02T03:24:01.699Z,48.90
2023-02-02T03:26:28.984Z,48.90
2023-02-02T03:28:57.453Z,48.90
2023-02-02T03:31:27.174Z,48.90
2023-02-02T03:33:54.212Z,48.90
2023-02-02T03:36:20.924Z,48.80
2023-02-02T03:38:47.752Z,48.80
2023-02-02T03:41:14.437Z,48.80
2023-02-02T03:43:41.229Z,48.80
2023-02-02T03:46:07.929Z,48.80
2023-02-02T03:48:38.593Z,48.80
2023-02-02T03:51:11.619Z,48.80
2023-02-02T03:53:39.199Z,48.80
2023-02-02T03:56:06.598Z,48.80
2023-02-02T03:58:33.316Z,48.80
2023-02-02T04:01:07.599Z,48.80
2023-02-02T04:03:34.423Z,48.80
2023-02-02T04:06:01.259Z,48.80
2023-02-02T04:08:28.620Z,48.80
2023-02-02T04:10:55.386Z,48.70
2023-02-02T04:13:22.117Z,48.80
2023-02-02T04:15:55.909Z,48.80
2023-02-02T04:18:22.685Z,48.80
2023-02-02T04:20:49.343Z,48.80
2023-02-02T04:23:16.020Z,48.80
2023-02-02T04:25:49.703Z,48.80
2023-02-02T04:28:16.310Z,48.80
2023-02-02T04:30:43.029Z,48.80
2023-02-02T04:33:09.763Z,48.80
2023-02-02T04:35:36.456Z,48.80
2023-02-02T04:38:03.138Z,48.80
2023-02-02T04:40:29.810Z,48.90
2023-02-02T04:42:58.313Z,48.80
2023-02-02T04:45:25.422Z,48.80
2023-02-02T04:47:52.289Z,48.80
2023-02-02T04:50:19.039Z,48.80
2023-02-02T04:52:45.797Z,48.80
2023-02-02T04:55:12.652Z,48.80
2023-02-02T04:57:39.391Z,48.80
2023-02-02T05:00:07.255Z,48.90
2023-02-02T05:02:37.499Z,48.80
2023-02-02T05:05:06.350Z,48.90
2023-02-02T05:07:33.121Z,48.80
2023-02-02T05:09:59.769Z,48.90
2023-02-02T05:12:26.453Z,48.80
2023-02-02T05:14:53.176Z,48.80
2023-02-02T05:17:19.860Z,48.80
2023-02-02T05:19:46.557Z,48.80
2023-02-02T05:22:13.332Z,48.80
2023-02-02T05:24:40.000Z,48.80
2023-02-02T05:27:06.654Z,48.80
2023-02-02T05:29:33.413Z,48.80
2023-02-02T05:32:00.106Z,48.80
2023-02-02T05:34:26.847Z,48.70
2023-02-02T05:36:53.558Z,48.70
2023-02-02T05:39:20.176Z,48.70
2023-02-02T05:41:46.881Z,48.70
2023-02-02T05:44:15.995Z,48.70
2023-02-02T05:46:42.696Z,48.70
2023-02-02T05:49:13.551Z,48.70
2023-02-02T05:51:48.611Z,48.70
2023-02-02T05:54:19.404Z,48.70
2023-02-02T05:56:48.362Z,48.70
2023-02-02T05:59:15.130Z,48.70
2023-02-02T06:01:41.776Z,48.70
2023-02-02T06:04:08.496Z,48.70
2023-02-02T06:06:35.793Z,48.70
2023-02-02T06:09:02.714Z,48.70
2023-02-02T06:11:29.675Z,48.70
2023-02-02T06:13:56.597Z,48.70
2023-02-02T06:16:23.529Z,48.70
2023-02-02T06:18:50.197Z,48.70
2023-02-02T06:21:17.221Z,48.70
2023-02-02T06:23:45.842Z,48.80
2023-02-02T06:26:13.822Z,48.70
2023-02-02T06:28:40.847Z,48.70
2023-02-02T06:31:10.179Z,48.80
2023-02-02T06:33:37.320Z,48.70
2023-02-02T06:36:06.457Z,48.70
2023-02-02T06:38:33.400Z,48.70
2023-02-02T06:41:00.955Z,48.70
2023-02-02T06:43:28.279Z,48.70
2023-02-02T06:45:56.761Z,48.70
2023-02-02T06:48:23.443Z,48.70
2023-02-02T06:50:50.177Z,48.70
2023-02-02T06:53:22.200Z,48.70
2023-02-02T06:55:56.455Z,48.70
2023-02-02T06:58:23.470Z,48.70
2023-02-02T07:00:50.292Z,48.60
2023-02-02T07:03:17.665Z,48.70
2023-02-02T07:05:44.367Z,48.70
2023-02-02T07:08:10.987Z,48.60
2023-02-02T07:11:15.307Z,48.70
2023-02-02T07:13:25.571Z,48.70
2023-02-02T07:15:52.210Z,48.70
2023-02-02T07:18:18.934Z,48.70
2023-02-02T07:20:45.691Z,48.70
2023-02-02T07:23:12.467Z,48.70
2023-02-02T07:25:39.299Z,48.70
2023-02-02T07:28:06.259Z,48.70
2023-02-02T07:30:33.364Z,48.80
2023-02-02T07:33:00.541Z,49.50
2023-02-02T07:35:27.249Z,49.70
2023-02-02T07:37:55.485Z,50.90
2023-02-02T07:40:22.441Z,52.10
2023-02-02T07:42:49.384Z,52.50
2023-02-02T07:45:36.174Z,52.20
2023-02-02T07:48:03.144Z,51.50
2023-02-02T07:50:31.076Z,51.10
2023-02-02T07:52:59.539Z,51.00
2023-02-02T07:55:26.267Z,50.80
2023-02-02T07:57:55.399Z,50.70
2023-02-02T08:00:23.056Z,50.60
2023-02-02T08:02:50.217Z,50.50
2023-02-02T08:05:17.165Z,50.40
2023-02-02T08:07:44.710Z,50.30
2023-02-02T08:10:11.934Z,50.20
2023-02-02T08:12:38.622Z,50.10
2023-02-02T08:15:05.697Z,50.10
2023-02-02T08:17:32.394Z,50.00
2023-02-02T08:19:59.104Z,49.90
2023-02-02T08:22:25.995Z,49.90
2023-02-02T08:24:52.649Z,49.80
2023-02-02T08:27:19.314Z,49.70
2023-02-02T08:29:46.210Z,49.70
2023-02-02T08:32:12.888Z,49.70
2023-02-02T08:34:40.975Z,49.60
2023-02-02T08:37:07.777Z,49.60
2023-02-02T08:39:34.431Z,49.50
2023-02-02T08:42:01.053Z,49.50
2023-02-02T08:44:43.026Z,49.50
2023-02-02T08:47:14.535Z,49.40
2023-02-02T08:49:42.448Z,49.40
2023-02-02T08:52:09.414Z,49.30
2023-02-02T08:54:36.067Z,49.30
2023-02-02T08:57:02.787Z,49.20
2023-02-02T08:59:29.469Z,49.10
2023-02-02T09:01:56.454Z,49.00
2023-02-02T09:04:23.308Z,48.80
2023-02-02T09:06:49.961Z,48.70
2023-02-02T09:09:17.074Z,48.60
2023-02-02T09:11:44.672Z,48.50
2023-02-02T09:14:13.834Z,48.60
2023-02-02T09:16:40.936Z,48.70
2023-02-02T09:19:08.073Z,48.60
2023-02-02T09:21:37.849Z,48.60
2023-02-02T09:24:13.686Z,48.50
2023-02-02T09:26:41.001Z,48.60
2023-02-02T09:29:11.107Z,48.50
2023-02-02T09:31:38.506Z,48.50
2023-02-02T09:34:07.667Z,48.50
2023-02-02T09:36:35.039Z,48.50
2023-02-02T09:39:02.162Z,48.60
2023-02-02T09:41:59.530Z,48.60
2023-02-02T09:44:46.651Z,48.60
2023-02-02T09:47:41.003Z,48.70
2023-02-02T09:50:20.212Z,48.60
2023-02-02T09:52:56.435Z,48.60
2023-02-02T09:55:37.258Z,48.60
2023-02-02T09:58:24.850Z,48.50
2023-02-02T10:01:13.576Z,48.50
2023-02-02T10:04:01.549Z,48.40
2023-02-02T10:06:35.329Z,48.30
2023-02-02T10:09:10.475Z,48.30
2023-02-02T10:11:55.965Z,48.40
2023-02-02T10:14:32.574Z,48.40
2023-02-02T10:17:12.898Z,48.50
2023-02-02T10:19:40.743Z,48.50
2023-02-02T10:22:17.855Z,48.50
2023-02-02T10:24:44.731Z,48.50
2023-02-02T10:27:16.734Z,48.50
2023-02-02T10:30:03.707Z,48.60
2023-02-02T10:32:54.326Z,48.50
2023-02-02T10:35:49.873Z,48.60
2023-02-02T10:38:39.214Z,48.60
2023-02-02T10:41:20.147Z,48.60
2023-02-02T10:44:04.961Z,48.60
2023-02-02T10:46:38.168Z,48.60
2023-02-02T10:49:28.738Z,48.70
2023-02-02T10:52:10.964Z,48.60
2023-02-02T10:54:57.166Z,48.70
2023-02-02T10:57:52.765Z,48.70
2023-02-02T11:00:36.274Z,48.70
2023-02-02T11:03:04.774Z,48.70
2023-02-02T11:05:50.563Z,48.80
2023-02-02T11:08:42.101Z,48.80
2023-02-02T11:11:16.811Z,48.80
2023-02-02T11:13:55.297Z,48.70
2023-02-02T11:16:38.755Z,48.70
2023-02-02T11:19:30.256Z,48.80
2023-02-02T11:22:02.308Z,48.80
2023-02-02T11:24:30.213Z,48.80
2023-02-02T11:27:01.979Z,48.80
2023-02-02T11:29:42.888Z,48.80
2023-02-02T11:32:30.736Z,48.80
2023-02-02T11:35:06.370Z,48.80
2023-02-02T11:37:52.068Z,48.80
2023-02-02T11:40:28.608Z,48.80
2023-02-02T11:42:57.487Z,48.90
2023-02-02T11:45:33.576Z,48.90
2023-02-02T11:48:32.034Z,48.90
2023-02-02T11:51:00.841Z,48.90
2023-02-02T11:53:29.042Z,49.60
2023-02-02T11:55:58.289Z,50.70
2023-02-02T11:58:28.499Z,50.40
2023-02-02T12:01:01.054Z,50.60
2023-02-02T12:03:39.150Z,50.70
2023-02-02T12:06:23.986Z,50.50
2023-02-02T12:09:01.340Z,50.30
2023-02-02T12:11:57.123Z,50.20
2023-02-02T12:14:37.900Z,50.10
2023-02-02T12:17:23.062Z,50.00
2023-02-02T12:19:52.468Z,50.00
2023-02-02T12:22:26.667Z,49.80
2023-02-02T12:25:18.632Z,49.70
2023-02-02T12:27:52.573Z,49.70
2023-02-02T12:30:59.790Z,49.60
2023-02-02T12:33:35.732Z,49.50
2023-02-02T12:36:21.841Z,49.40
2023-02-02T12:39:20.911Z,49.30
2023-02-02T12:41:54.297Z,49.30
2023-02-02T12:44:31.452Z,49.30
2023-02-02T12:47:14.677Z,49.20
2023-02-02T12:50:02.747Z,49.20
2023-02-02T12:52:59.574Z,49.20
2023-02-02T12:55:44.861Z,49.20
2023-02-02T12:58:31.457Z,49.20
2023-02-02T13:01:34.664Z,49.10
2023-02-02T13:04:38.634Z,49.10
2023-02-02T13:07:23.891Z,49.10
2023-02-02T13:10:39.176Z,49.00
2023-02-02T13:13:20.470Z,49.00
2023-02-02T13:15:51.119Z,49.00
2023-02-02T13:18:24.635Z,49.00
2023-02-02T13:21:00.389Z,49.00
2023-02-02T13:23:37.072Z,49.00
2023-02-02T13:26:17.835Z,49.00
2023-02-02T13:29:11.249Z,48.90
2023-02-02T13:31:52.042Z,48.90
2023-02-02T13:34:42.921Z,49.00
2023-02-02T13:37:37.325Z,49.00
2023-02-02T13:40:36.642Z,49.00
2023-02-02T13:43:29.165Z,49.00
2023-02-02T13:46:17.321Z,49.10
2023-02-02T13:49:41.108Z,49.10
2023-02-02T13:52:38.532Z,49.10
2023-02-02T13:55:42.587Z,49.10
2023-02-02T13:58:20.889Z,49.10
2023-02-02T14:00:52.875Z,49.20
2023-02-02T14:03:28.675Z,49.20
2023-02-02T14:06:17.763Z,49.20
2023-02-02T14:09:02.669Z,49.10
2023-02-02T14:11:33.234Z,49.30
2023-02-02T14:14:33.392Z,49.30
2023-02-02T14:17:05.706Z,49.40
2023-02-02T14:19:35.464Z,49.50
2023-02-02T14:22:16.498Z,49.40
2023-02-02T14:24:44.828Z,49.30
2023-02-02T14:27:11.495Z,49.30
2023-02-02T14:29:59.221Z,49.60
2023-02-02T14:32:28.612Z,49.60
2023-02-02T14:35:08.194Z,49.60
2023-02-02T14:38:04.163Z,49.60
2023-02-02T14:40:55.876Z,49.50
2023-02-02T14:43:44.563Z,49.50
2023-02-02T14:46:14.351Z,49.50
2023-02-02T14:49:05.351Z,49.50
2023-02-02T14:51:34.623Z,49.60
2023-02-02T14:54:05.121Z,49.70
2023-02-02T14:56:52.911Z,49.70
2023-02-02T14:59:24.613Z,49.70
2023-02-02T15:02:02.125Z,49.60
2023-02-02T15:04:29.579Z,49.60
2023-02-02T15:07:16.493Z,49.50
2023-02-02T15:09:44.360Z,49.50
2023-02-02T15:12:14.746Z,49.50
2023-02-02T15:14:56.451Z,49.50
2023-02-02T15:17:32.676Z,49.50
2023-02-02T15:20:21.075Z,49.70
2023-02-02T15:22:47.828Z,49.80
2023-02-02T15:25:30.983Z,49.70
2023-02-02T15:28:08.827Z,49.70
2023-02-02T15:30:40.033Z,49.70
2023-02-02T15:33:18.985Z,49.70
2023-02-02T15:35:48.183Z,49.60
2023-02-02T15:38:20.380Z,49.60
2023-02-02T15:40:47.204Z,49.60
2023-02-02T15:43:15.433Z,49.50
2023-02-02T15:45:45.217Z,49.50
2023-02-02T15:48:24.583Z,49.50
2023-02-02T15:50:56.633Z,49.50
2023-02-02T15:53:33.242Z,49.50
2023-02-02T15:56:01.877Z,49.40
2023-02-02T15:58:32.141Z,49.50
2023-02-02T16:01:03.075Z,49.40
2023-02-02T16:03:42.393Z,49.40
2023-02-02T16:06:09.446Z,49.40
2023-02-02T16:08:38.954Z,49.50
2023-02-02T16:11:15.491Z,49.40
2023-02-02T16:13:54.755Z,49.40
2023-02-02T16:16:32.956Z,49.40
2023-02-02T16:19:04.499Z,49.50
2023-02-02T16:21:31.944Z,49.40
2023-02-02T16:24:00.555Z,49.40
2023-02-02T16:26:30.184Z,49.40
2023-02-02T16:28:57.395Z,49.40
2023-02-02T16:31:25.114Z,49.40
2023-02-02T16:33:51.803Z,49.40
2023-02-02T16:36:26.417Z,49.40
2023-02-02T16:38:54.651Z,49.50
2023-02-02T16:41:32.983Z,49.50
2023-02-02T16:44:32.956Z,49.40
2023-02-02T16:47:00.281Z,49.40
2023-02-02T16:49:28.459Z,49.40
2023-02-02T16:52:17.437Z,49.40
2023-02-02T16:54:53.651Z,49.40
2023-02-02T16:57:28.766Z,49.50
2023-02-02T17:00:06.143Z,49.60
2023-02-02T17:02:37.711Z,49.60
2023-02-02T17:05:06.460Z,49.70
2023-02-02T17:07:36.646Z,49.60
2023-02-02T17:10:14.825Z,49.60
2023-02-02T17:12:41.518Z,49.70
2023-02-02T17:15:17.424Z,49.60
2023-02-02T17:17:48.019Z,49.80
2023-02-02T17:20:19.183Z,49.80
2023-02-02T17:22:49.426Z,50.00
2023-02-02T17:25:27.594Z,50.40
2023-02-02T17:27:55.829Z,51.00
2023-02-02T17:30:22.870Z,50.80
2023-02-02T17:32:49.461Z,50.80
2023-02-02T17:35:19.391Z,50.90
2023-02-02T17:37:46.065Z,51.00
2023-02-02T17:40:14.883Z,51.00
2023-02-02T17:42:43.627Z,51.00
2023-02-02T17:45:23.286Z,51.20
2023-02-02T17:47:51.035Z,51.10
2023-02-02T17:50:18.392Z,50.90
2023-02-02T17:52:46.002Z,50.70
2023-02-02T17:55:36.816Z,50.70
2023-02-02T17:58:03.943Z,50.50
2023-02-02T18:00:31.620Z,50.40
2023-02-02T18:03:10.950Z,50.30
2023-02-02T18:05:38.857Z,50.20
2023-02-02T18:08:06.504Z,50.10
2023-02-02T18:10:33.497Z,50.10
2023-02-02T18:13:00.172Z,50.00
2023-02-02T18:15:27.231Z,49.90
2023-02-02T18:17:55.154Z,49.90
2023-02-02T18:20:21.757Z,49.90
2023-02-02T18:22:50.725Z,49.90
2023-02-02T18:25:17.800Z,49.80
2023-02-02T18:27:44.768Z,49.80
2023-02-02T18:30:12.233Z,49.80
2023-02-02T18:32:41.123Z,49.70
2023-02-02T18:35:10.654Z,49.70
2023-02-02T18:37:38.069Z,49.70
2023-02-02T18:40:05.820Z,49.70
2023-02-02T18:42:33.704Z,49.70
2023-02-02T18:45:01.216Z,49.70
2023-02-02T18:47:28.193Z,49.60
2023-02-02T18:49:54.983Z,49.60
2023-02-02T18:52:21.740Z,49.60
2023-02-02T18:54:48.650Z,49.60
2023-02-02T18:57:15.491Z,49.60
2023-02-02T18:59:42.773Z,49.60
2023-02-02T19:02:14.693Z,49.60
2023-02-02T19:05:01.721Z,49.50
2023-02-02T19:07:46.888Z,49.50
2023-02-02T19:10:13.787Z,49.50
2023-02-02T19:12:40.540Z,49.80
2023-02-02T19:15:12.897Z,49.80
2023-02-02T19:17:40.344Z,49.70
2023-02-02T19:20:23.164Z,49.70
2023-02-02T19:22:49.981Z,49.70
2023-02-02T19:25:17.462Z,49.70
2023-02-02T19:27:44.248Z,49.70
2023-02-02T19:30:22.625Z,49.70
2023-02-02T19:32:49.415Z,49.70
2023-02-02T19:35:27.402Z,49.70
2023-02-02T19:38:01.291Z,49.70
2023-02-02T19:40:28.310Z,49.70
2023-02-02T19:43:23.235Z,49.60
2023-02-02T19:45:50.002Z,49.60
2023-02-02T19:48:24.851Z,49.60
2023-02-02T19:50:52.308Z,49.60
2023-02-02T19:53:23.127Z,49.50
2023-02-02T19:55:51.037Z,49.50
2023-02-02T19:58:24.081Z,49.50
2023-02-02T20:00:52.488Z,49.50
2023-02-02T20:03:39.413Z,49.50
2023-02-02T20:06:06.107Z,49.50
2023-02-02T20:08:43.501Z,49.50
2023-02-02T20:11:36.717Z,49.60
2023-02-02T20:14:18.991Z,49.60
2023-02-02T20:16:50.747Z,49.60
2023-02-02T20:19:21.807Z,49.60
2023-02-02T20:21:51.218Z,49.60
2023-02-02T20:24:22.600Z,49.60
2023-02-02T20:26:51.406Z,49.50
2023-02-02T20:29:22.399Z,49.50
2023-02-02T20:31:51.312Z,49.40
2023-02-02T20:34:32.766Z,49.40
2023-02-02T20:37:05.858Z,49.40
2023-02-02T20:39:35.475Z,49.30
2023-02-02T20:42:03.701Z,49.40
2023-02-02T20:44:32.482Z,49.70
2023-02-02T20:47:00.397Z,49.80
2023-02-02T20:49:28.768Z,50.20
2023-02-02T20:51:56.552Z,50.10
2023-02-02T20:54:24.805Z,50.40
2023-02-02T20:56:52.489Z,50.30
2023-02-02T20:59:22.427Z,50.10
2023-02-02T21:01:50.114Z,49.90
2023-02-02T21:04:18.117Z,49.80
2023-02-02T21:06:46.360Z,49.80
2023-02-02T21:09:12.982Z,49.80
2023-02-02T21:11:39.604Z,49.80
2023-02-02T21:14:06.336Z,49.70
2023-02-02T21:16:33.291Z,49.70
2023-02-02T21:19:00.126Z,49.70
2023-02-02T21:21:26.820Z,49.70
2023-02-02T21:23:53.557Z,49.70
2023-02-02T21:26:23.506Z,49.90
2023-02-02T21:28:50.185Z,50.00
2023-02-02T21:31:17.760Z,50.00
2023-02-02T21:33:45.586Z,49.80
2023-02-02T21:36:44.050Z,49.80
2023-02-02T21:39:25.713Z,49.70
2023-02-02T21:42:00.150Z,49.80
2023-02-02T21:44:26.965Z,49.70
2023-02-02T21:46:53.743Z,49.70
2023-02-02T21:49:24.439Z,49.70
2023-02-02T21:51:52.231Z,49.70
2023-02-02T21:54:25.980Z,49.70
2023-02-02T21:56:53.254Z,49.60
2023-02-02T21:59:22.682Z,49.60
2023-02-02T22:01:51.373Z,49.60
2023-02-02T22:04:19.535Z,49.70
2023-02-02T22:06:53.894Z,49.60
2023-02-02T22:09:24.765Z,49.60
2023-02-02T22:12:05.771Z,49.60
2023-02-02T22:14:40.735Z,49.60
2023-02-02T22:17:18.795Z,49.50
2023-02-02T22:19:45.873Z,49.50
2023-02-02T22:22:16.223Z,49.50
2023-02-02T22:24:45.290Z,49.50
2023-02-02T22:27:23.706Z,49.50
2023-02-02T22:29:56.824Z,49.70
2023-02-02T22:32:23.482Z,49.70
2023-02-02T22:34:50.132Z,49.60
2023-02-02T22:37:17.944Z,49.60
2023-02-02T22:39:44.536Z,49.60
2023-02-02T22:42:11.171Z,49.60
2023-02-02T22:44:37.835Z,49.60
2023-02-02T22:47:04.624Z,49.60
2023-02-02T22:49:31.464Z,49.50
2023-02-02T22:51:58.070Z,49.50
2023-02-02T22:54:24.708Z,49.50
2023-02-02T22:56:51.379Z,49.50
2023-02-02T22:59:18.125Z,49.50
2023-02-02T23:01:44.711Z,49.50
2023-02-02T23:04:11.606Z,49.50
2023-02-02T23:06:38.342Z,49.50
2023-02-02T23:09:04.999Z,49.50
2023-02-02T23:11:31.619Z,49.60
2023-02-02T23:13:58.262Z,49.50
2023-02-02T23:16:25.056Z,49.40
2023-02-02T23:18:51.816Z,49.40
2023-02-02T23:21:18.451Z,49.40
2023-02-02T23:23:45.085Z,49.30
2023-02-02T23:26:11.765Z,49.40
2023-02-02T23:28:38.390Z,49.30
2023-02-02T23:31:05.370Z,49.30
2023-02-02T23:33:32.346Z,49.30
2023-02-02T23:35:59.002Z,49.20
2023-02-02T23:38:25.637Z,49.20
2023-02-02T23:40:52.302Z,49.20
2023-02-02T23:43:19.029Z,49.20
2023-02-02T23:45:45.796Z,49.20
2023-02-02T23:48:13.152Z,49.20
2023-02-02T23:50:40.079Z,49.10
2023-02-02T23:53:08.334Z,49.10
2023-02-02T23:55:35.430Z,49.10
2023-02-02T23:58:02.449Z,49.10
